createdAt,value
2023-02-02T00:01:55.378Z,1.46
2023-02-02T00:04:26.837Z,1.46
2023-02-02T00:06:57.092Z,1.47
2023-02-02T00:09:29.569Z,1.48
2023-02-02T00:12:00.427Z,1.48
2023-02-02T00:14:30.020Z,1.49
2023-02-02T00:16:59.305Z,1.50
2023-02-02T00:19:30.940Z,1.52
2023-02-02T00:22:00.276Z,1.55
2023-02-02T00:24:29.538Z,1.60
2023-02-02T00:27:00.091Z,1.66
2023-02-02T00:29:31.361Z,1.69
2023-02-02T00:32:00.614Z,1.73
2023-02-02T00:34:31.042Z,1.76
2023-02-02T00:37:00.173Z,1.77
2023-02-02T00:39:30.606Z,1.79
2023-02-02T00:41:59.870Z,1.80
2023-02-02T00:44:48.358Z,1.86
2023-02-02T00:47:19.473Z,1.92
2023-02-02T00:49:48.738Z,1.98
2023-02-02T00:52:18.149Z,2.05
2023-02-02T00:54:47.192Z,2.09
2023-02-02T00:57:16.977Z,2.13
2023-02-02T00:59:46.269Z,2.16
2023-02-02T01:02:15.589Z,2.19
2023-02-02T01:04:45.041Z,2.25
2023-02-02T01:07:14.211Z,2.30
2023-02-02T01:09:43.552Z,2.34
2023-02-02T01:12:12.825Z,2.38
2023-02-02T01:14:42.086Z,2.45
2023-02-02T01:17:11.155Z,2.45
2023-02-02T01:19:40.897Z,2.42
2023-02-02T01:22:10.197Z,2.44
2023-02-02T01:24:39.392Z,2.45
2023-02-02T01:27:08.593Z,2.47
2023-02-02T01:29:38.152Z,2.49
2023-02-02T01:32:08.026Z,2.54
2023-02-02T01:34:41.406Z,2.56
2023-02-02T01:37:11.496Z,2.56
2023-02-02T01:39:40.008Z,2.56
2023-02-02T01:42:15.618Z,2.52
2023-02-02T01:45:14.491Z,2.50
2023-02-02T01:47:52.459Z,2.52
2023-02-02T01:50:25.254Z,2.57
2023-02-02T01:52:57.460Z,2.57
2023-02-02T01:55:31.121Z,2.58
2023-02-02T01:58:05.390Z,2.59
2023-02-02T02:00:35.192Z,2.59
2023-02-02T02:03:09.264Z,2.59
2023-02-02T02:05:44.774Z,2.63
2023-02-02T02:08:18.149Z,2.64
2023-02-02T02:10:47.918Z,2.68
2023-02-02T02:13:18.648Z,2.69
2023-02-02T02:16:21.176Z,2.71
2023-02-02T02:19:12.239Z,2.76
2023-02-02T02:22:19.867Z,2.75
2023-02-02T02:25:41.113Z,2.79
2023-02-02T02:28:54.841Z,2.79
2023-02-02T02:31:59.347Z,2.78
2023-02-02T02:34:42.502Z,2.75
2023-02-02T02:37:23.232Z,2.78
2023-02-02T02:39:57.592Z,2.81
2023-02-02T02:42:30.632Z,2.80
2023-02-02T02:45:04.069Z,2.79
2023-02-02T02:47:34.789Z,2.80
2023-02-02T02:50:05.341Z,2.81
2023-02-02T02:52:36.644Z,2.84
2023-02-02T02:55:11.083Z,2.85
2023-02-02T02:57:54.324Z,2.86
2023-02-02T03:00:41.528Z,2.87
2023-02-02T03:03:19.775Z,2.85
2023-02-02T03:05:54.390Z,2.83
2023-02-02T03:08:30.154Z,2.85
2023-02-02T03:11:01.877Z,2.89
2023-02-02T03:13:32.231Z,2.88
2023-02-02T03:16:02.127Z,2.89
2023-02-02T03:18:32.855Z,2.89
2023-02-02T03:21:02.257Z,2.85
2023-02-02T03:23:31.662Z,2.83
2023-02-02T03:26:00.789Z,2.84
2023-02-02T03:28:31.081Z,2.84
2023-02-02T03:31:02.412Z,2.84
2023-02-02T03:33:35.629Z,2.84
2023-02-02T03:36:05.065Z,2.82
2023-02-02T03:38:33.945Z,2.81
2023-02-02T03:41:03.144Z,2.84
2023-02-02T03:43:32.054Z,2.86
2023-02-02T03:46:03.648Z,2.87
2023-02-02T03:48:34.801Z,2.88
2023-02-02T03:51:07.844Z,2.90
2023-02-02T03:53:37.291Z,2.89
2023-02-02T03:56:07.354Z,2.85
2023-02-02T03:58:35.526Z,2.80
2023-02-02T04:01:06.989Z,2.74
2023-02-02T04:03:36.591Z,2.73
2023-02-02T04:06:06.258Z,2.74
2023-02-02T04:08:35.607Z,2.78
2023-02-02T04:11:04.857Z,2.81
2023-02-02T04:13:34.164Z,2.80
2023-02-02T04:16:03.590Z,2.80
2023-02-02T04:18:32.601Z,2.78
2023-02-02T04:21:02.043Z,2.77
2023-02-02T04:23:31.424Z,2.74
2023-02-02T04:26:01.568Z,2.72
2023-02-02T04:28:29.781Z,2.75
2023-02-02T04:30:59.045Z,2.80
2023-02-02T04:33:29.276Z,2.85
2023-02-02T04:35:57.430Z,2.86
2023-02-02T04:38:26.669Z,2.86
2023-02-02T04:40:55.736Z,2.84
2023-02-02T04:43:24.891Z,2.83
2023-02-02T04:45:57.620Z,2.82
2023-02-02T04:48:26.953Z,2.83
2023-02-02T04:51:00.575Z,2.85
2023-02-02T04:53:30.262Z,2.89
2023-02-02T04:56:04.627Z,2.94
2023-02-02T04:58:33.919Z,2.96
2023-02-02T05:01:07.844Z,2.97
2023-02-02T05:03:36.875Z,2.99
2023-02-02T05:06:07.058Z,2.97
2023-02-02T05:08:36.810Z,2.97
2023-02-02T05:11:09.064Z,2.96
2023-02-02T05:13:38.279Z,2.98
2023-02-02T05:16:08.628Z,2.97
2023-02-02T05:18:37.760Z,2.98
2023-02-02T05:21:07.097Z,3.00
2023-02-02T05:23:36.971Z,3.03
2023-02-02T05:26:05.817Z,3.05
2023-02-02T05:28:35.118Z,3.07
2023-02-02T05:31:07.677Z,3.06
2023-02-02T05:33:36.781Z,3.07
2023-02-02T05:36:07.980Z,3.10
2023-02-02T05:38:37.145Z,3.10
2023-02-02T05:41:07.319Z,3.13
2023-02-02T05:43:36.722Z,3.20
2023-02-02T05:46:05.895Z,3.25
2023-02-02T05:48:35.467Z,3.29
2023-02-02T05:51:10.654Z,3.33
2023-02-02T05:53:39.953Z,3.35
2023-02-02T05:56:09.264Z,3.40
2023-02-02T05:58:38.612Z,3.44
2023-02-02T06:01:08.013Z,3.49
2023-02-02T06:03:37.273Z,3.51
2023-02-02T06:06:07.393Z,3.57
2023-02-02T06:08:35.718Z,3.63
2023-02-02T06:11:11.071Z,3.67
2023-02-02T06:13:40.912Z,3.68
2023-02-02T06:16:10.430Z,3.69
2023-02-02T06:18:39.828Z,3.68
2023-02-02T06:21:10.112Z,3.69
2023-02-02T06:23:43.119Z,3.68
2023-02-02T06:26:13.792Z,3.76
2023-02-02T06:28:43.981Z,3.80
2023-02-02T06:31:13.226Z,3.79
2023-02-02T06:33:42.683Z,3.78
2023-02-02T06:36:15.192Z,3.76
2023-02-02T06:38:50.803Z,3.75
2023-02-02T06:41:20.838Z,3.73
2023-02-02T06:43:51.864Z,3.76
2023-02-02T06:46:20.922Z,3.76
2023-02-02T06:48:51.601Z,3.77
2023-02-02T06:51:20.984Z,3.76
2023-02-02T06:53:50.376Z,3.76
2023-02-02T06:56:19.898Z,3.74
2023-02-02T06:58:49.644Z,3.75
2023-02-02T07:01:20.223Z,3.77
2023-02-02T07:03:50.867Z,3.80
2023-02-02T07:06:22.463Z,3.80
2023-02-02T07:09:01.856Z,3.82
2023-02-02T07:11:37.238Z,3.85
2023-02-02T07:14:09.257Z,3.85
2023-02-02T07:16:38.525Z,3.84
2023-02-02T07:19:08.502Z,3.88
2023-02-02T07:21:38.268Z,3.93
2023-02-02T07:24:08.717Z,3.93
2023-02-02T07:26:38.618Z,3.97
2023-02-02T07:29:07.999Z,3.97
2023-02-02T07:31:37.280Z,3.97
2023-02-02T07:34:06.552Z,4.00
2023-02-02T07:36:35.914Z,4.06
2023-02-02T07:39:07.138Z,4.12
2023-02-02T07:41:37.662Z,4.13
2023-02-02T07:44:16.553Z,4.16
2023-02-02T07:46:51.430Z,4.11
2023-02-02T07:49:19.870Z,4.11
2023-02-02T07:51:49.390Z,4.10
2023-02-02T07:54:18.181Z,4.09
2023-02-02T07:56:47.244Z,4.10
2023-02-02T07:59:16.783Z,4.12
2023-02-02T08:01:46.824Z,4.14
2023-02-02T08:04:16.067Z,4.16
2023-02-02T08:06:47.737Z,4.19
2023-02-02T08:09:22.673Z,4.29
2023-02-02T08:11:52.091Z,4.29
2023-02-02T08:14:24.047Z,4.30
2023-02-02T08:16:53.535Z,4.30
2023-02-02T08:19:23.134Z,4.30
2023-02-02T08:22:04.268Z,4.33
2023-02-02T08:24:42.431Z,4.34
2023-02-02T08:27:11.535Z,4.41
2023-02-02T08:29:40.436Z,4.44
2023-02-02T08:32:10.643Z,4.43
2023-02-02T08:34:40.457Z,4.39
2023-02-02T08:37:10.905Z,4.33
2023-02-02T08:39:39.797Z,4.26
2023-02-02T08:42:09.243Z,4.16
2023-02-02T08:46:13.247Z,4.12
2023-02-02T08:47:39.835Z,4.08
2023-02-02T08:50:12.781Z,4.06
2023-02-02T08:52:42.039Z,4.06
2023-02-02T08:55:11.635Z,4.09
2023-02-02T08:57:41.443Z,4.12
2023-02-02T09:00:13.473Z,4.15
2023-02-02T09:02:42.555Z,4.22
2023-02-02T09:05:24.726Z,4.26
2023-02-02T09:07:58.165Z,4.30
2023-02-02T09:10:27.609Z,4.35
2023-02-02T09:12:57.325Z,4.39
2023-02-02T09:15:27.554Z,4.44
2023-02-02T09:17:57.104Z,4.42
2023-02-02T09:20:26.562Z,4.43
2023-02-02T09:22:57.048Z,4.40
2023-02-02T09:25:27.279Z,4.41
2023-02-02T09:27:57.019Z,4.38
2023-02-02T09:30:26.371Z,4.31
2023-02-02T09:32:55.521Z,4.22
2023-02-02T09:35:26.624Z,4.18
2023-02-02T09:37:56.121Z,4.14
2023-02-02T09:40:27.382Z,4.09
2023-02-02T09:43:06.751Z,4.08
2023-02-02T09:45:55.563Z,4.06
2023-02-02T09:48:35.052Z,4.12
2023-02-02T09:51:12.440Z,4.17
2023-02-02T09:53:55.278Z,4.24
2023-02-02T09:56:32.952Z,4.32
2023-02-02T09:59:18.754Z,4.41
2023-02-02T10:01:55.038Z,4.48
2023-02-02T10:04:30.246Z,4.54
2023-02-02T10:07:07.776Z,4.57
2023-02-02T10:09:43.874Z,4.60
2023-02-02T10:12:30.155Z,4.75
2023-02-02T10:15:12.079Z,5.01
2023-02-02T10:17:46.792Z,5.08
2023-02-02T10:20:42.361Z,5.05
2023-02-02T10:23:24.808Z,4.91
2023-02-02T10:25:57.646Z,4.90
2023-02-02T10:28:45.246Z,4.96
2023-02-02T10:31:24.396Z,4.93
2023-02-02T10:34:07.677Z,4.87
2023-02-02T10:36:54.066Z,4.90
2023-02-02T10:39:36.731Z,4.82
2023-02-02T10:42:20.557Z,4.84
2023-02-02T10:44:56.361Z,4.76
2023-02-02T10:47:29.861Z,4.70
2023-02-02T10:50:18.129Z,4.77
2023-02-02T10:52:52.347Z,4.74
2023-02-02T10:55:42.038Z,4.69
2023-02-02T10:58:29.539Z,4.68
2023-02-02T11:01:03.102Z,4.64
2023-02-02T11:03:34.485Z,4.57
2023-02-02T11:06:25.187Z,4.60
2023-02-02T11:09:01.581Z,4.87
2023-02-02T11:11:33.126Z,5.17
2023-02-02T11:14:11.932Z,5.51
2023-02-02T11:16:44.796Z,5.69
2023-02-02T11:19:29.063Z,5.68
2023-02-02T11:21:59.281Z,5.52
2023-02-02T11:24:30.842Z,5.29
2023-02-02T11:27:03.680Z,5.05
2023-02-02T11:29:40.885Z,4.74
2023-02-02T11:32:26.110Z,4.53
2023-02-02T11:35:18.651Z,4.41
2023-02-02T11:37:57.396Z,4.41
2023-02-02T11:40:33.125Z,4.56
2023-02-02T11:43:07.141Z,4.81
2023-02-02T11:45:39.933Z,5.05
2023-02-02T11:48:19.261Z,5.27
2023-02-02T11:50:57.842Z,5.39
2023-02-02T11:53:34.589Z,5.63
2023-02-02T11:56:09.703Z,5.82
2023-02-02T11:58:47.409Z,5.92
2023-02-02T12:01:34.275Z,5.83
2023-02-02T12:04:23.233Z,5.71
2023-02-02T12:06:52.450Z,5.70
2023-02-02T12:09:32.815Z,5.66
2023-02-02T12:12:12.236Z,5.68
2023-02-02T12:14:54.252Z,5.68
2023-02-02T12:17:43.853Z,5.67
2023-02-02T12:20:36.359Z,5.70
2023-02-02T12:23:17.741Z,5.77
2023-02-02T12:26:03.021Z,5.87
2023-02-02T12:29:00.290Z,6.03
2023-02-02T12:31:40.250Z,6.05
2023-02-02T12:34:23.318Z,6.08
2023-02-02T12:37:03.752Z,6.05
2023-02-02T12:39:45.550Z,5.97
2023-02-02T12:42:41.213Z,5.92
2023-02-02T12:45:35.616Z,5.81
2023-02-02T12:48:25.000Z,5.73
2023-02-02T12:51:07.200Z,5.62
2023-02-02T12:54:32.773Z,5.48
2023-02-02T12:56:49.711Z,5.37
2023-02-02T12:59:27.772Z,5.23
2023-02-02T13:02:05.278Z,5.02
2023-02-02T13:04:55.940Z,4.76
2023-02-02T13:07:50.756Z,4.43
2023-02-02T13:10:30.236Z,4.23
2023-02-02T13:13:07.814Z,4.11
2023-02-02T13:15:40.763Z,3.98
2023-02-02T13:18:15.081Z,3.84
2023-02-02T13:20:48.106Z,3.67
2023-02-02T13:23:22.149Z,3.61
2023-02-02T13:25:55.554Z,3.66
2023-02-02T13:28:37.011Z,3.65
2023-02-02T13:31:15.452Z,3.81
2023-02-02T13:33:50.728Z,4.00
2023-02-02T13:36:29.084Z,3.99
2023-02-02T13:39:02.130Z,3.95
2023-02-02T13:41:32.249Z,4.09
2023-02-02T13:44:08.613Z,4.30
2023-02-02T13:46:45.934Z,4.30
2023-02-02T13:49:19.828Z,4.22
2023-02-02T13:51:55.812Z,4.12
2023-02-02T13:54:39.019Z,3.96
2023-02-02T13:57:21.542Z,3.96
2023-02-02T14:00:00.450Z,4.95
2023-02-02T14:02:33.668Z,7.76
2023-02-02T14:05:05.329Z,9.86
2023-02-02T14:07:42.078Z,10.88
2023-02-02T14:10:25.217Z,11.88
2023-02-02T14:12:55.913Z,10.82
2023-02-02T14:15:39.689Z,9.71
2023-02-02T14:18:09.187Z,8.96
2023-02-02T14:20:54.319Z,8.25
2023-02-02T14:23:51.923Z,7.48
2023-02-02T14:26:41.905Z,7.03
2023-02-02T14:29:38.957Z,6.72
2023-02-02T14:32:34.287Z,6.41
2023-02-02T14:35:35.223Z,5.85
2023-02-02T14:38:08.883Z,5.34
2023-02-02T14:40:53.371Z,5.10
2023-02-02T14:43:45.753Z,4.84
2023-02-02T14:46:34.647Z,4.60
2023-02-02T14:49:34.761Z,4.36
2023-02-02T14:52:05.467Z,4.18
2023-02-02T14:54:42.792Z,4.08
2023-02-02T14:57:27.562Z,3.95
2023-02-02T15:00:01.197Z,3.88
2023-02-02T15:02:36.451Z,3.84
2023-02-02T15:05:43.348Z,3.82
2023-02-02T15:08:28.112Z,3.96
2023-02-02T15:11:21.949Z,4.24
2023-02-02T15:13:57.721Z,4.43
2023-02-02T15:16:31.187Z,4.50
2023-02-02T15:19:14.339Z,4.49
2023-02-02T15:21:48.222Z,4.44
2023-02-02T15:24:27.763Z,4.32
2023-02-02T15:26:59.948Z,4.20
2023-02-02T15:29:42.190Z,4.04
2023-02-02T15:32:25.615Z,3.84
2023-02-02T15:35:06.159Z,3.78
2023-02-02T15:37:41.793Z,3.70
2023-02-02T15:40:16.381Z,3.61
2023-02-02T15:42:55.111Z,3.53
2023-02-02T15:45:49.715Z,3.54
2023-02-02T15:48:29.435Z,3.49
2023-02-02T15:51:01.054Z,3.41
2023-02-02T15:53:45.011Z,3.36
2023-02-02T15:56:29.096Z,3.28
2023-02-02T15:58:59.759Z,3.23
2023-02-02T16:01:33.771Z,3.23
2023-02-02T16:04:21.971Z,3.21
2023-02-02T16:06:51.536Z,3.19
2023-02-02T16:09:26.534Z,3.08
2023-02-02T16:11:55.729Z,3.01
2023-02-02T16:14:24.728Z,2.93
2023-02-02T16:16:53.825Z,2.84
2023-02-02T16:19:25.199Z,2.78
2023-02-02T16:21:58.328Z,2.77
2023-02-02T16:24:32.107Z,2.71
2023-02-02T16:27:05.814Z,2.73
2023-02-02T16:29:35.720Z,2.71
2023-02-02T16:32:05.201Z,2.65
2023-02-02T16:34:48.428Z,2.63
2023-02-02T16:37:24.847Z,2.59
2023-02-02T16:39:54.920Z,2.56
2023-02-02T16:42:25.338Z,2.56
2023-02-02T16:44:55.415Z,2.55
2023-02-02T16:47:44.253Z,2.58
2023-02-02T16:50:28.306Z,2.64
2023-02-02T16:53:01.462Z,2.67
2023-02-02T16:55:47.783Z,2.74
2023-02-02T16:58:23.488Z,2.77
2023-02-02T17:01:13.546Z,2.72
2023-02-02T17:03:49.330Z,2.68
2023-02-02T17:06:25.347Z,2.66
2023-02-02T17:08:54.444Z,2.63
2023-02-02T17:11:26.612Z,2.61
2023-02-02T17:13:56.421Z,2.57
2023-02-02T17:16:26.009Z,2.58
2023-02-02T17:18:54.672Z,2.58
2023-02-02T17:21:25.660Z,2.61
2023-02-02T17:23:54.933Z,2.63
2023-02-02T17:26:24.201Z,2.62
2023-02-02T17:28:56.705Z,2.63
2023-02-02T17:31:25.946Z,2.61
2023-02-02T17:33:55.334Z,2.59
2023-02-02T17:36:24.507Z,2.54
2023-02-02T17:38:54.132Z,2.53
2023-02-02T17:41:23.011Z,2.50
2023-02-02T17:43:52.160Z,2.52
2023-02-02T17:46:22.110Z,2.48
2023-02-02T17:48:51.421Z,2.51
2023-02-02T17:51:20.280Z,2.54
2023-02-02T17:53:49.890Z,2.52
2023-02-02T17:56:21.369Z,2.51
2023-02-02T17:58:50.492Z,2.49
2023-02-02T18:01:20.115Z,2.42
2023-02-02T18:03:50.307Z,2.44
2023-02-02T18:06:19.642Z,2.46
2023-02-02T18:08:48.702Z,2.48
2023-02-02T18:11:18.413Z,2.49
2023-02-02T18:13:47.547Z,2.50
2023-02-02T18:16:19.352Z,2.51
2023-02-02T18:18:48.637Z,2.50
2023-02-02T18:21:18.691Z,2.40
2023-02-02T18:23:49.264Z,2.38
2023-02-02T18:26:21.151Z,2.28
2023-02-02T18:28:51.277Z,2.21
2023-02-02T18:31:23.373Z,2.15
2023-02-02T18:33:54.066Z,2.13
2023-02-02T18:36:23.251Z,2.09
2023-02-02T18:38:54.288Z,1.99
2023-02-02T18:41:24.077Z,1.91
2023-02-02T18:43:56.322Z,1.81
2023-02-02T18:46:27.327Z,1.73
2023-02-02T18:48:56.785Z,1.65
2023-02-02T18:51:27.026Z,1.56
2023-02-02T18:53:59.927Z,1.47
2023-02-02T18:56:29.843Z,1.41
2023-02-02T18:58:59.928Z,1.38
2023-02-02T19:01:28.381Z,1.36
2023-02-02T19:03:58.008Z,1.33
2023-02-02T19:06:48.194Z,1.30
2023-02-02T19:09:16.999Z,1.24
2023-02-02T19:11:48.368Z,1.18
2023-02-02T19:14:18.900Z,1.15
2023-02-02T19:16:48.821Z,1.09
2023-02-02T19:19:24.737Z,1.04
2023-02-02T19:21:57.666Z,0.97
2023-02-02T19:24:34.186Z,0.93
2023-02-02T19:27:06.378Z,0.91
2023-02-02T19:29:38.385Z,0.91
2023-02-02T19:32:14.598Z,0.92
2023-02-02T19:34:44.522Z,0.94
2023-02-02T19:37:28.179Z,0.93
2023-02-02T19:40:16.343Z,0.90
2023-02-02T19:42:47.643Z,0.83
2023-02-02T19:45:23.029Z,0.81
2023-02-02T19:47:53.177Z,0.76
2023-02-02T19:50:26.078Z,0.71
2023-02-02T19:52:56.105Z,0.65
2023-02-02T19:55:27.618Z,0.61
2023-02-02T19:58:09.694Z,0.59
2023-02-02T20:00:40.650Z,0.58
2023-02-02T20:03:13.051Z,0.58
2023-02-02T20:05:44.481Z,0.60
2023-02-02T20:08:24.914Z,0.60
2023-02-02T20:10:55.652Z,0.63
2023-02-02T20:13:34.023Z,0.63
2023-02-02T20:16:04.760Z,0.62
2023-02-02T20:18:42.181Z,0.59
2023-02-02T20:21:22.822Z,0.60
2023-02-02T20:23:51.981Z,0.61
2023-02-02T20:26:27.975Z,0.60
2023-02-02T20:29:00.050Z,0.60
2023-02-02T20:31:37.079Z,0.61
2023-02-02T20:34:24.284Z,0.64
2023-02-02T20:36:57.893Z,0.65
2023-02-02T20:39:32.709Z,0.66
2023-02-02T20:42:02.848Z,0.68
2023-02-02T20:44:33.000Z,0.72
2023-02-02T20:47:01.889Z,0.77
2023-02-02T20:49:31.797Z,0.83
2023-02-02T20:52:07.319Z,0.86
2023-02-02T20:54:36.824Z,0.88
2023-02-02T20:57:06.826Z,0.91
2023-02-02T20:59:36.046Z,0.93
2023-02-02T21:02:05.792Z,0.96
2023-02-02T21:04:35.441Z,0.95
2023-02-02T21:07:04.859Z,0.91
2023-02-02T21:09:34.677Z,0.89
2023-02-02T21:12:03.875Z,0.90
2023-02-02T21:14:33.180Z,0.88
2023-02-02T21:17:14.027Z,0.87
2023-02-02T21:19:45.015Z,0.86
2023-02-02T21:22:13.940Z,0.85
2023-02-02T21:24:42.844Z,0.83
2023-02-02T21:27:13.130Z,0.85
2023-02-02T21:29:42.570Z,0.86
2023-02-02T21:32:12.384Z,0.89
2023-02-02T21:34:41.395Z,0.96
2023-02-02T21:37:14.382Z,1.04
2023-02-02T21:39:47.829Z,1.09
2023-02-02T21:42:19.478Z,1.09
2023-02-02T21:44:52.984Z,1.10
2023-02-02T21:47:29.106Z,1.11
2023-02-02T21:50:02.189Z,1.10
2023-02-02T21:52:34.930Z,1.09
2023-02-02T21:55:28.575Z,1.09
2023-02-02T21:58:00.825Z,1.06
2023-02-02T22:00:34.048Z,1.05
2023-02-02T22:03:03.290Z,1.04
2023-02-02T22:05:35.987Z,1.05
2023-02-02T22:08:21.088Z,1.02
2023-02-02T22:10:50.340Z,0.99
2023-02-02T22:13:21.724Z,0.95
2023-02-02T22:15:52.555Z,0.90
2023-02-02T22:18:24.837Z,0.86
2023-02-02T22:20:55.889Z,0.81
2023-02-02T22:23:27.302Z,0.76
2023-02-02T22:25:58.232Z,0.71
2023-02-02T22:28:32.395Z,0.67
2023-02-02T22:31:01.373Z,0.64
2023-02-02T22:33:30.796Z,0.60
2023-02-02T22:35:59.861Z,0.55
2023-02-02T22:38:29.409Z,0.53
2023-02-02T22:40:58.726Z,0.48
2023-02-02T22:43:27.999Z,0.46
2023-02-02T22:45:57.299Z,0.47
2023-02-02T22:48:26.860Z,0.52
2023-02-02T22:50:56.462Z,0.48
2023-02-02T22:53:25.742Z,0.42
2023-02-02T22:55:59.501Z,0.36
2023-02-02T22:58:28.689Z,0.35
2023-02-02T23:00:57.730Z,0.31
2023-02-02T23:03:27.103Z,0.25
2023-02-02T23:05:56.630Z,0.20
2023-02-02T23:08:25.852Z,0.15
2023-02-02T23:10:55.485Z,0.13
2023-02-02T23:13:25.058Z,0.08
2023-02-02T23:15:56.213Z,0.01
2023-02-02T23:18:25.784Z,-0.06
2023-02-02T23:20:55.073Z,-0.08
2023-02-02T23:23:24.103Z,-0.15
2023-02-02T23:25:53.247Z,-0.21
2023-02-02T23:28:22.365Z,-0.26
2023-02-02T23:30:54.032Z,-0.30
2023-02-02T23:33:23.131Z,-0.29
2023-02-02T23:35:52.496Z,-0.25
2023-02-02T23:38:21.854Z,-0.21
2023-02-02T23:40:51.101Z,-0.13
2023-02-02T23:43:20.119Z,-0.16
2023-02-02T23:45:49.388Z,-0.17
2023-02-02T23:48:19.100Z,-0.20
2023-02-02T23:50:48.495Z,-0.21
2023-02-02T23:53:17.667Z,-0.25
2023-02-02T23:55:47.703Z,-0.30
2023-02-02T23:58:18.458Z,-0.31
